createdAt,value
2022-11-24T00:02:29.465Z,55.39
2022-11-24T00:05:31.696Z,55.40
2022-11-24T00:08:34.999Z,55.39
2022-11-24T00:11:37.506Z,55.41
2022-11-24T00:14:39.552Z,55.41
2022-11-24T00:17:41.686Z,55.45
2022-11-24T00:20:43.732Z,55.46
2022-11-24T00:23:46.677Z,55.45
2022-11-24T00:26:48.802Z,55.47
2022-11-24T00:29:50.847Z,55.42
2022-11-24T00:32:53.278Z,55.41
2022-11-24T00:35:57.314Z,55.43
2022-11-24T00:39:01.878Z,55.49
2022-11-24T00:42:03.999Z,55.50
2022-11-24T00:45:13.549Z,55.48
2022-11-24T00:48:16.458Z,55.50
2022-11-24T00:51:20.224Z,55.51
2022-11-24T00:54:22.488Z,55.54
2022-11-24T00:57:24.559Z,55.55
2022-11-24T01:00:26.684Z,55.56
2022-11-24T01:03:28.925Z,55.55
2022-11-24T01:06:32.635Z,55.56
2022-11-24T01:09:34.969Z,55.54
2022-11-24T01:12:37.091Z,55.55
2022-11-24T01:15:39.727Z,55.58
2022-11-24T01:18:41.941Z,55.56
2022-11-24T01:21:44.046Z,55.58
2022-11-24T01:24:46.210Z,55.58
2022-11-24T01:27:48.259Z,55.61
2022-11-24T01:31:00.664Z,55.62
2022-11-24T01:34:02.840Z,55.63
2022-11-24T01:37:04.905Z,55.65
2022-11-24T01:40:07.816Z,55.62
2022-11-24T01:43:18.350Z,55.65
2022-11-24T01:46:32.602Z,55.67
2022-11-24T01:49:43.776Z,55.65
2022-11-24T01:52:49.538Z,55.68
2022-11-24T01:55:53.293Z,55.70
2022-11-24T01:58:58.552Z,55.71
2022-11-24T02:02:00.672Z,55.74
2022-11-24T02:05:10.259Z,55.72
2022-11-24T02:08:28.844Z,55.74
2022-11-24T02:11:36.269Z,55.74
2022-11-24T02:14:40.809Z,55.75
2022-11-24T02:17:42.900Z,55.74
2022-11-24T02:20:45.051Z,55.78
2022-11-24T02:24:06.493Z,55.77
2022-11-24T02:27:10.572Z,55.79
2022-11-24T02:30:12.615Z,55.82
2022-11-24T02:33:15.154Z,55.83
2022-11-24T02:36:17.312Z,55.87
2022-11-24T02:39:19.602Z,55.90
2022-11-24T02:42:22.222Z,55.92
2022-11-24T02:45:25.834Z,55.90
2022-11-24T02:48:28.287Z,55.92
2022-11-24T02:51:30.350Z,55.92
2022-11-24T02:54:32.866Z,55.95
2022-11-24T02:57:35.128Z,55.93
2022-11-24T03:00:37.204Z,55.96
2022-11-24T03:03:39.445Z,55.97
2022-11-24T03:06:43.255Z,55.95
2022-11-24T03:09:45.645Z,55.95
2022-11-24T03:12:47.702Z,55.97
2022-11-24T03:15:49.913Z,55.97
2022-11-24T03:18:52.742Z,55.96
2022-11-24T03:21:54.798Z,56.00
2022-11-24T03:24:56.823Z,56.00
2022-11-24T03:27:58.972Z,56.03
2022-11-24T03:31:02.177Z,56.07
2022-11-24T03:34:04.289Z,56.09
2022-11-24T03:37:07.515Z,56.09
2022-11-24T03:40:10.106Z,56.07
2022-11-24T03:43:12.199Z,56.10
2022-11-24T03:46:14.328Z,56.07
2022-11-24T03:49:16.393Z,56.11
2022-11-24T03:52:18.453Z,56.13
2022-11-24T03:55:20.544Z,56.13
2022-11-24T03:58:22.971Z,56.16
2022-11-24T04:01:25.221Z,56.16
2022-11-24T04:04:27.334Z,56.16
2022-11-24T04:07:29.430Z,56.14
2022-11-24T04:10:33.722Z,55.97
2022-11-24T04:13:35.905Z,55.95
2022-11-24T04:16:38.042Z,55.92
2022-11-24T04:19:40.145Z,55.82
2022-11-24T04:22:42.823Z,55.81
2022-11-24T04:25:44.910Z,55.84
2022-11-24T04:28:47.959Z,55.82
2022-11-24T04:31:50.067Z,55.81
2022-11-24T04:34:52.179Z,55.84
2022-11-24T04:37:54.270Z,55.84
2022-11-24T04:41:00.492Z,55.75
2022-11-24T04:44:02.570Z,55.69
2022-11-24T04:47:05.214Z,55.65
2022-11-24T04:50:08.951Z,55.57
2022-11-24T04:53:11.791Z,55.52
2022-11-24T04:56:14.656Z,55.47
2022-11-24T04:59:17.106Z,55.44
2022-11-24T05:02:19.984Z,55.39
2022-11-24T05:05:22.052Z,55.37
2022-11-24T05:08:24.155Z,55.34
2022-11-24T05:11:26.192Z,55.33
2022-11-24T05:14:28.729Z,55.40
2022-11-24T05:17:32.198Z,55.42
2022-11-24T05:20:34.731Z,55.42
2022-11-24T05:23:36.909Z,55.47
2022-11-24T05:26:38.986Z,55.39
2022-11-24T05:29:41.099Z,55.12
2022-11-24T05:32:43.597Z,54.66
2022-11-24T05:35:46.470Z,54.33
2022-11-24T05:38:48.557Z,54.04
2022-11-24T05:41:50.678Z,53.70
2022-11-24T05:44:53.543Z,53.67
2022-11-24T05:47:55.676Z,53.60
2022-11-24T05:50:58.635Z,53.61
2022-11-24T05:54:00.669Z,53.57
2022-11-24T05:57:02.755Z,53.53
2022-11-24T06:00:07.172Z,53.59
2022-11-24T06:03:10.700Z,53.65
2022-11-24T06:06:13.124Z,53.69
2022-11-24T06:09:15.152Z,53.80
2022-11-24T06:12:17.180Z,53.81
2022-11-24T06:15:19.508Z,53.88
2022-11-24T06:18:21.537Z,53.93
2022-11-24T06:21:23.601Z,53.98
2022-11-24T06:24:25.668Z,54.02
2022-11-24T06:27:27.960Z,54.05
2022-11-24T06:30:30.219Z,54.03
2022-11-24T06:33:34.289Z,53.85
2022-11-24T06:36:36.389Z,53.88
2022-11-24T06:39:38.454Z,53.91
2022-11-24T06:42:40.547Z,53.95
2022-11-24T06:45:42.678Z,53.97
2022-11-24T06:48:44.846Z,54.07
2022-11-24T06:51:46.952Z,54.10
2022-11-24T06:54:48.986Z,53.99
2022-11-24T07:00:54.627Z,53.87
2022-11-24T07:03:57.687Z,53.84
2022-11-24T07:06:59.937Z,53.85
2022-11-24T07:10:02.144Z,53.93
2022-11-24T07:13:07.031Z,53.96
2022-11-24T07:16:23.753Z,53.98
2022-11-24T07:19:26.029Z,54.03
2022-11-24T07:22:28.187Z,54.04
2022-11-24T07:25:30.355Z,54.00
2022-11-24T07:28:33.092Z,54.01
2022-11-24T07:31:38.058Z,53.90
2022-11-24T07:34:40.157Z,53.82
2022-11-24T07:37:42.200Z,53.91
2022-11-24T07:40:44.274Z,53.90
2022-11-24T07:43:47.651Z,54.61
2022-11-24T07:46:51.188Z,55.18
2022-11-24T07:49:53.231Z,55.59
2022-11-24T07:52:55.298Z,56.10
2022-11-24T07:56:02.181Z,56.29
2022-11-24T07:59:05.061Z,56.78
2022-11-24T08:02:07.475Z,57.10
2022-11-24T08:05:09.677Z,57.32
2022-11-24T08:08:11.705Z,57.19
2022-11-24T08:11:17.057Z,56.85
2022-11-24T08:14:19.274Z,56.51
2022-11-24T08:17:21.323Z,56.32
2022-11-24T08:20:23.370Z,56.13
2022-11-24T08:23:25.930Z,56.44
2022-11-24T08:26:27.961Z,56.46
2022-11-24T08:29:30.868Z,56.33
2022-11-24T08:32:33.006Z,56.34
2022-11-24T08:35:38.607Z,56.75
2022-11-24T08:38:41.016Z,57.64
2022-11-24T08:41:43.277Z,58.45
2022-11-24T08:44:45.333Z,58.81
2022-11-24T08:47:55.105Z,58.93
2022-11-24T08:50:58.294Z,58.80
2022-11-24T08:54:01.524Z,58.74
2022-11-24T08:57:03.762Z,58.70
2022-11-24T09:00:07.376Z,58.64
2022-11-24T09:03:12.647Z,58.67
2022-11-24T09:06:15.415Z,58.72
2022-11-24T09:09:17.870Z,58.84
2022-11-24T09:12:19.972Z,58.64
2022-11-24T09:15:22.861Z,58.47
2022-11-24T09:18:29.976Z,58.01
2022-11-24T09:21:34.300Z,57.70
2022-11-24T09:24:36.464Z,57.46
2022-11-24T09:27:38.674Z,57.26
2022-11-24T09:30:40.862Z,57.09
2022-11-24T09:33:43.873Z,56.93
2022-11-24T09:36:46.149Z,56.80
2022-11-24T09:39:48.183Z,56.63
2022-11-24T09:43:19.411Z,56.65
2022-11-24T09:46:32.860Z,56.54
2022-11-24T09:49:47.316Z,56.54
2022-11-24T09:53:16.337Z,56.49
2022-11-24T09:56:30.795Z,56.64
2022-11-24T09:59:33.213Z,56.55
2022-11-24T10:02:35.398Z,56.61
2022-11-24T10:05:37.659Z,56.66
2022-11-24T10:08:49.566Z,56.60
2022-11-24T10:12:09.555Z,56.58
2022-11-24T10:15:19.015Z,56.56
2022-11-24T10:19:05.747Z,56.55
2022-11-24T10:22:44.119Z,56.54
2022-11-24T10:25:59.899Z,56.48
2022-11-24T10:29:13.802Z,56.46
2022-11-24T10:32:32.072Z,56.44
2022-11-24T10:35:48.174Z,56.44
2022-11-24T10:39:06.261Z,56.41
2022-11-24T10:42:17.647Z,56.42
2022-11-24T10:45:24.159Z,56.33
2022-11-24T10:48:29.898Z,56.19
2022-11-24T10:52:09.950Z,56.18
2022-11-24T10:55:12.051Z,56.23
2022-11-24T10:58:17.340Z,55.94
2022-11-24T11:01:26.396Z,56.10
2022-11-24T11:04:34.969Z,56.10
2022-11-24T11:07:37.091Z,55.98
2022-11-24T11:10:39.396Z,56.10
2022-11-24T11:13:55.798Z,56.09
2022-11-24T11:17:02.547Z,56.07
2022-11-24T11:20:16.940Z,56.11
2022-11-24T11:23:32.273Z,55.96
2022-11-24T11:26:37.669Z,55.85
2022-11-24T11:36:24.617Z,55.77
2022-11-24T11:39:37.108Z,55.71
2022-11-24T11:43:01.971Z,55.68
2022-11-24T11:46:17.859Z,55.65
2022-11-24T11:49:20.258Z,55.72
2022-11-24T11:52:32.753Z,55.65
2022-11-24T11:55:49.923Z,55.55
2022-11-24T11:59:26.017Z,55.44
2022-11-24T12:02:53.952Z,49.37
2022-11-24T12:06:46.935Z,44.56
2022-11-24T12:10:25.693Z,41.12
2022-11-24T12:13:56.484Z,40.99
2022-11-24T12:17:33.225Z,40.82
2022-11-24T12:20:40.798Z,40.30
2022-11-24T12:23:53.341Z,41.77
2022-11-24T12:27:05.718Z,40.56
2022-11-24T12:30:15.883Z,43.66
2022-11-24T12:33:27.826Z,45.16
2022-11-24T12:36:35.775Z,46.41
2022-11-24T12:40:13.323Z,47.93
2022-11-24T12:43:26.098Z,49.31
2022-11-24T12:46:49.603Z,51.01
2022-11-24T12:50:11.573Z,51.86
2022-11-24T12:53:24.637Z,52.47
2022-11-24T12:56:37.530Z,52.72
2022-11-24T12:59:46.760Z,53.41
2022-11-24T13:03:18.485Z,53.56
2022-11-24T13:06:36.166Z,53.62
2022-11-24T13:09:58.561Z,53.52
2022-11-24T13:13:14.452Z,53.73
2022-11-24T13:16:53.547Z,53.58
2022-11-24T13:19:46.838Z,53.69
2022-11-24T13:23:03.476Z,53.62
2022-11-24T13:26:27.373Z,53.40
2022-11-24T13:29:36.008Z,53.28
2022-11-24T13:32:38.160Z,53.16
2022-11-24T13:36:01.159Z,53.01
2022-11-24T13:39:17.159Z,52.94
2022-11-24T13:42:43.331Z,52.91
2022-11-24T13:45:45.269Z,52.92
2022-11-24T13:48:47.447Z,52.88
2022-11-24T13:51:53.247Z,52.88
2022-11-24T13:54:55.433Z,52.92
2022-11-24T13:57:59.314Z,53.01
2022-11-24T14:01:16.517Z,53.01
2022-11-24T14:04:43.144Z,53.09
2022-11-24T14:07:47.178Z,53.29
2022-11-24T14:10:49.599Z,53.53
2022-11-24T14:13:51.760Z,53.62
2022-11-24T14:17:06.887Z,53.70
2022-11-24T14:20:25.221Z,53.68
2022-11-24T14:23:27.657Z,53.68
2022-11-24T14:26:35.517Z,53.67
2022-11-24T14:29:37.669Z,53.72
2022-11-24T14:32:40.865Z,53.73
2022-11-24T14:35:49.275Z,53.56
2022-11-24T14:38:51.364Z,53.61
2022-11-24T14:42:09.897Z,53.81
2022-11-24T14:45:18.541Z,53.71
2022-11-24T14:48:28.294Z,53.84
2022-11-24T14:51:34.732Z,53.78
2022-11-24T14:54:54.162Z,54.04
2022-11-24T14:57:56.587Z,54.21
2022-11-24T15:01:29.632Z,54.52
2022-11-24T15:05:01.478Z,54.76
2022-11-24T15:08:04.098Z,54.95
2022-11-24T15:11:07.349Z,54.71
2022-11-24T15:14:31.932Z,54.78
2022-11-24T15:17:34.379Z,54.90
2022-11-24T15:20:46.276Z,54.84
2022-11-24T15:24:15.585Z,54.77
2022-11-24T15:27:17.608Z,54.72
2022-11-24T15:30:19.723Z,54.57
2022-11-24T15:33:23.165Z,54.53
2022-11-24T15:36:25.244Z,54.54
2022-11-24T15:39:27.372Z,54.65
2022-11-24T15:42:29.425Z,54.73
2022-11-24T15:45:33.819Z,54.82
2022-11-24T15:48:36.204Z,54.81
2022-11-24T15:51:42.474Z,54.78
2022-11-24T15:54:44.683Z,54.87
2022-11-24T15:57:47.238Z,54.55
2022-11-24T16:00:50.827Z,54.23
2022-11-24T16:03:53.019Z,54.41
2022-11-24T16:06:55.064Z,54.25
2022-11-24T16:09:57.134Z,54.28
2022-11-24T16:12:59.181Z,54.05
2022-11-24T16:16:01.491Z,53.96
2022-11-24T16:19:03.924Z,53.82
2022-11-24T16:22:06.677Z,53.78
2022-11-24T16:25:09.575Z,54.03
2022-11-24T16:28:11.861Z,54.17
2022-11-24T16:31:15.842Z,54.10
2022-11-24T16:34:18.472Z,54.04
2022-11-24T16:37:23.532Z,54.06
2022-11-24T16:40:25.705Z,54.01
2022-11-24T16:43:29.565Z,53.91
2022-11-24T16:46:31.698Z,53.88
2022-11-24T16:49:34.108Z,53.92
2022-11-24T16:52:36.569Z,54.12
2022-11-24T16:55:38.622Z,54.14
2022-11-24T16:58:41.796Z,53.93
2022-11-24T17:01:46.621Z,53.94
2022-11-24T17:04:52.177Z,54.08
2022-11-24T17:07:54.265Z,54.21
2022-11-24T17:10:56.441Z,54.21
2022-11-24T17:13:58.816Z,54.18
2022-11-24T17:17:00.898Z,54.13
2022-11-24T17:20:03.081Z,54.11
2022-11-24T17:23:05.223Z,53.97
2022-11-24T17:26:11.240Z,54.10
2022-11-24T17:29:13.552Z,54.20
2022-11-24T17:32:15.702Z,54.29
2022-11-24T17:35:17.790Z,54.32
2022-11-24T17:38:19.918Z,54.34
2022-11-24T17:41:25.024Z,54.35
2022-11-24T17:44:27.544Z,54.36
2022-11-24T17:47:30.154Z,54.34
2022-11-24T17:50:32.252Z,54.28
2022-11-24T17:53:36.825Z,54.31
2022-11-24T17:56:40.699Z,54.31
2022-11-24T17:59:42.822Z,54.32
2022-11-24T18:02:44.953Z,54.36
2022-11-24T18:05:47.172Z,54.33
2022-11-24T18:08:49.224Z,54.29
2022-11-24T18:11:52.136Z,54.32
2022-11-24T18:14:55.597Z,54.33
2022-11-24T18:17:57.670Z,54.30
2022-11-24T18:21:01.205Z,54.36
2022-11-24T18:24:03.349Z,54.39
2022-11-24T18:27:05.426Z,54.36
2022-11-24T18:30:08.045Z,54.41
2022-11-24T18:33:10.118Z,54.35
2022-11-24T18:36:22.642Z,54.37
2022-11-24T18:39:28.256Z,54.42
2022-11-24T18:42:30.374Z,54.40
2022-11-24T18:45:32.563Z,54.37
2022-11-24T18:48:35.425Z,54.41
2022-11-24T18:51:37.559Z,54.42
2022-11-24T18:54:39.664Z,54.41
2022-11-24T18:57:41.826Z,54.42
2022-11-24T19:00:43.951Z,54.43
2022-11-24T19:03:51.064Z,54.46
2022-11-24T19:06:53.143Z,54.47
2022-11-24T19:09:55.391Z,54.49
2022-11-24T19:12:57.484Z,54.43
2022-11-24T19:16:00.319Z,54.45
2022-11-24T19:19:02.941Z,54.49
2022-11-24T19:22:05.195Z,54.50
2022-11-24T19:25:10.396Z,54.47
2022-11-24T19:28:12.675Z,54.49
2022-11-24T19:31:16.568Z,54.47
2022-11-24T19:34:18.789Z,54.49
2022-11-24T19:37:21.635Z,54.47
2022-11-24T19:40:24.261Z,54.49
2022-11-24T19:43:26.747Z,54.50
2022-11-24T19:46:29.897Z,54.52
2022-11-24T19:49:32.447Z,54.49
2022-11-24T19:52:35.016Z,54.54
2022-11-24T19:55:37.944Z,54.55
2022-11-24T19:58:42.897Z,54.52
2022-11-24T20:01:45.806Z,54.59
2022-11-24T20:04:47.933Z,54.65
2022-11-24T20:07:50.035Z,54.65
2022-11-24T20:10:52.144Z,54.70
2022-11-24T20:13:54.523Z,54.71
2022-11-24T20:16:56.675Z,54.73
2022-11-24T20:19:58.954Z,54.76
2022-11-24T20:23:01.037Z,54.70
2022-11-24T20:26:07.946Z,54.72
2022-11-24T20:29:13.124Z,54.76
2022-11-24T20:32:19.419Z,54.80
2022-11-24T20:35:21.542Z,54.81
2022-11-24T20:38:23.636Z,54.84
2022-11-24T20:41:28.477Z,54.81
2022-11-24T20:44:30.595Z,54.78
2022-11-24T20:47:32.902Z,54.75
2022-11-24T20:50:38.005Z,54.79
2022-11-24T20:53:40.428Z,54.84
2022-11-24T20:56:44.371Z,54.82
2022-11-24T20:59:46.475Z,54.84
2022-11-24T21:02:48.811Z,54.82
2022-11-24T21:05:55.733Z,54.84
2022-11-24T21:09:03.517Z,54.81
2022-11-24T21:12:06.510Z,54.84
2022-11-24T21:15:09.123Z,54.83
2022-11-24T21:18:11.161Z,54.86
2022-11-24T21:21:14.046Z,54.85
2022-11-24T21:24:18.536Z,54.85
2022-11-24T21:27:20.609Z,54.90
2022-11-24T21:30:22.735Z,54.87
2022-11-24T21:33:24.958Z,54.90
2022-11-24T21:36:27.158Z,54.87
2022-11-24T21:39:29.250Z,54.87
2022-11-24T21:42:31.456Z,54.87
2022-11-24T21:45:34.759Z,54.83
2022-11-24T21:48:38.484Z,54.82
2022-11-24T21:51:40.576Z,54.88
2022-11-24T21:54:42.612Z,54.87
2022-11-24T21:57:44.765Z,54.87
2022-11-24T22:00:46.916Z,54.91
2022-11-24T22:03:49.354Z,54.92
2022-11-24T22:06:53.307Z,54.93
2022-11-24T22:09:55.361Z,54.94
2022-11-24T22:12:57.444Z,54.98
2022-11-24T22:16:05.157Z,55.00
2022-11-24T22:19:07.352Z,55.07
2022-11-24T22:22:09.398Z,55.04
2022-11-24T22:25:11.729Z,55.10
2022-11-24T22:28:13.850Z,55.13
2022-11-24T22:31:21.612Z,55.12
2022-11-24T22:34:23.761Z,55.16
2022-11-24T22:37:25.762Z,55.14
2022-11-24T22:40:27.978Z,55.02
2022-11-24T22:43:31.885Z,55.10
2022-11-24T22:46:34.290Z,55.16
2022-11-24T22:49:36.343Z,55.21
2022-11-24T22:52:40.359Z,55.23
2022-11-24T22:55:42.439Z,55.25
2022-11-24T22:58:44.663Z,55.30
2022-11-24T23:01:46.692Z,55.34
2022-11-24T23:04:48.833Z,55.32
2022-11-24T23:07:51.794Z,55.35
2022-11-24T23:11:00.632Z,55.39
2022-11-24T23:14:03.270Z,55.42
2022-11-24T23:17:05.338Z,55.45
2022-11-24T23:20:08.401Z,55.50
2022-11-24T23:23:10.491Z,55.51
2022-11-24T23:26:16.248Z,55.48
2022-11-24T23:29:18.337Z,55.52
2022-11-24T23:32:20.470Z,55.55
2022-11-24T23:35:23.641Z,55.52
2022-11-24T23:38:30.081Z,55.55
2022-11-24T23:41:32.420Z,55.59
2022-11-24T23:44:34.587Z,55.61
2022-11-24T23:47:36.795Z,55.63
2022-11-24T23:50:38.867Z,55.63
2022-11-24T23:53:41.533Z,55.62
2022-11-24T23:56:43.615Z,55.67
2022-11-24T23:59:45.669Z,55.70
